Time;durP1;ratioP1;P1;durP2;ratioP2;P2;SDS_P1;SDS_P2;PMS_P1;PMS_P2;Temp;Humidity;BMP_temperature;BMP_pressure;BME280_temperature;BME280_humidity;BME280_pressure;Samples;Min_cycle;Max_cycle;Signal;HPM_P1;HPM_P2
2022/09/12 00:02:18;;;;;;;2.63;1.50;;;;;;;19.66;100.00;99600.72;5053703;28;20502;-70
2022/09/12 00:04:44;;;;;;;2.75;1.45;;;;;;;19.39;100.00;99602.66;5052188;28;20502;-71
2022/09/12 00:07:09;;;;;;;2.42;1.23;;;;;;;18.87;100.00;99548.75;5053262;28;20040;-71
2022/09/12 00:09:34;;;;;;;3.03;1.60;;;;;;;18.94;100.00;99586.03;5051823;28;20514;-71
2022/09/12 00:12:00;;;;;;;2.47;1.40;;;;;;;18.96;100.00;99609.94;5052951;28;20083;-70
2022/09/12 00:14:25;;;;;;;2.70;1.60;;;;;;;18.79;100.00;99581.09;5053433;28;20087;-70
2022/09/12 00:16:51;;;;;;;2.80;1.58;;;;;;;19.38;100.00;99572.66;5053345;28;20020;-70
2022/09/12 00:19:17;;;;;;;2.50;1.50;;;;;;;18.65;100.00;99552.88;5053315;28;20025;-71
2022/09/12 00:21:43;;;;;;;2.97;1.33;;;;;;;19.24;100.00;99559.06;5051947;28;20033;-71
2022/09/12 00:24:09;;;;;;;2.13;1.35;;;;;;;19.44;100.00;99628.97;5053258;28;20035;-69
2022/09/12 00:26:34;;;;;;;3.63;2.03;;;;;;;19.02;100.00;99565.72;5053051;28;20075;-70
2022/09/12 00:29:00;;;;;;;3.17;1.60;;;;;;;19.10;100.00;99579.81;5052877;28;20473;-70
2022/09/12 00:31:26;;;;;;;4.10;1.60;;;;;;;19.12;100.00;99643.22;5053238;28;20029;-69
2022/09/12 00:33:53;;;;;;;2.45;1.40;;;;;;;19.29;100.00;99557.00;5052981;28;20483;-70
2022/09/12 00:36:22;;;;;;;3.10;1.40;;;;;;;19.43;100.00;99608.44;5052405;28;20025;-70
2022/09/12 00:38:48;;;;;;;2.13;1.40;;;;;;;18.91;100.00;99565.66;5052325;28;20041;-70
2022/09/12 00:41:19;;;;;;;2.80;1.33;;;;;;;19.87;100.00;99619.00;5052973;28;20032;-70
2022/09/12 00:43:48;;;;;;;1.80;1.50;;;;;;;19.86;100.00;99628.53;5052675;28;20025;-70
2022/09/12 00:46:19;;;;;;;4.22;1.77;;;;;;;19.50;100.00;99622.53;5052550;28;20025;-69
2022/09/12 00:49:06;;;;;;;3.72;1.83;;;;;;;19.32;100.00;99621.22;5052688;28;20069;-71
2022/09/12 00:51:35;;;;;;;1.60;1.50;;;;;;;19.33;100.00;99585.03;5052464;28;20044;-70
2022/09/12 00:54:07;;;;;;;4.28;1.60;;;;;;;19.68;100.00;99510.34;5052317;28;20053;-70
2022/09/12 00:56:36;;;;;;;3.72;1.52;;;;;;;19.62;100.00;99608.78;5051258;28;20380;-69
2022/09/12 00:59:09;;;;;;;5.60;1.70;;;;;;;19.38;100.00;99554.63;5052146;28;20102;-70
2022/09/12 01:01:35;;;;;;;3.83;1.80;;;;;;;19.36;100.00;99602.06;5052487;28;20024;-70
2022/09/12 01:04:02;;;;;;;2.67;1.20;;;;;;;19.50;100.00;99614.81;5052637;28;20108;-70
2022/09/12 01:06:34;;;;;;;2.05;1.30;;;;;;;19.46;100.00;99619.38;5050636;28;20039;-70
2022/09/12 01:09:02;;;;;;;1.52;1.33;;;;;;;19.63;100.00;99598.34;5052323;28;20041;-70
2022/09/12 01:11:29;;;;;;;1.85;0.80;;;;;;;18.89;100.00;99497.94;5053363;28;20041;-71
2022/09/12 01:13:54;;;;;;;2.17;1.13;;;;;;;18.42;100.00;99504.66;5052175;28;20090;-70
2022/09/12 01:16:20;;;;;;;1.65;0.85;;;;;;;18.99;100.00;99557.38;5051242;28;20381;-70
2022/09/12 01:19:20;;;;;;;2.15;0.82;;;;;;;19.00;100.00;99598.50;5051953;28;20040;-70
2022/09/12 01:22:19;;;;;;;2.50;1.10;;;;;;;18.95;100.00;99607.47;5052294;28;20029;-70
2022/09/12 01:25:05;;;;;;;3.80;1.65;;;;;;;18.96;100.00;99603.97;5051861;28;20036;-70
2022/09/12 01:28:14;;;;;;;5.60;2.15;;;;;;;19.25;100.00;99600.22;5050651;28;20170;-70
2022/09/12 01:30:48;;;;;;;3.42;2.08;;;;;;;19.47;100.00;99590.06;5052331;28;20036;-69
2022/09/12 01:33:29;;;;;;;4.38;2.63;;;;;;;19.15;100.00;99573.44;5051622;28;20034;-71
2022/09/12 01:36:00;;;;;;;4.53;2.50;;;;;;;19.30;100.00;99576.69;5050567;28;20064;-70
2022/09/12 01:39:03;;;;;;;4.25;2.70;;;;;;;19.23;100.00;99567.75;5051919;28;20032;-69
2022/09/12 01:41:40;;;;;;;3.40;2.70;;;;;;;19.08;100.00;99574.75;5008593;28;20110;-69
2022/09/12 01:44:24;;;;;;;3.90;2.30;;;;;;;19.31;100.00;99584.31;5046607;28;20084;-70
2022/09/12 01:47:14;;;;;;;3.67;2.45;;;;;;;19.04;100.00;99571.59;5050137;28;20032;-70
2022/09/12 01:49:54;;;;;;;4.90;2.45;;;;;;;19.33;100.00;99589.41;5051059;28;20082;-70
2022/09/12 01:52:31;;;;;;;3.78;2.10;;;;;;;19.11;100.00;99582.31;5050865;28;20036;-69
2022/09/12 01:55:06;;;;;;;4.00;2.70;;;;;;;18.86;100.00;99548.81;5083269;28;20040;-71
2022/09/12 01:57:40;;;;;;;3.00;2.25;;;;;;;18.71;100.00;99550.72;5050125;28;20039;-70
2022/09/12 02:00:09;;;;;;;3.55;2.20;;;;;;;18.80;100.00;99542.34;5050005;28;20087;-69
2022/09/12 02:02:49;;;;;;;5.55;2.80;;;;;;;18.79;100.00;99511.56;5051277;28;20075;-70
2022/09/12 02:05:24;;;;;;;4.43;2.67;;;;;;;19.11;100.00;99587.47;5051082;28;20098;-70
2022/09/12 02:08:04;;;;;;;3.83;2.40;;;;;;;19.00;100.00;99577.88;5050458;28;20033;-70
2022/09/12 02:10:35;;;;;;;3.13;1.77;;;;;;;19.08;100.00;99581.66;5031067;28;20022;-71
2022/09/12 02:13:15;;;;;;;1.30;0.95;;;;;;;18.68;100.00;99573.25;5030897;28;20034;-70
2022/09/12 02:15:50;;;;;;;2.00;1.17;;;;;;;19.05;100.00;99575.78;5038452;28;20090;-70
2022/09/12 02:18:17;;;;;;;3.33;1.30;;;;;;;19.13;100.00;99582.19;5030657;28;20029;-69
2022/09/12 02:20:46;;;;;;;2.20;1.05;;;;;;;18.82;100.00;99560.28;5029896;28;20047;-70
2022/09/12 02:23:25;;;;;;;2.55;1.30;;;;;;;19.03;100.00;99585.38;5029449;28;20029;-70
2022/09/12 02:25:56;;;;;;;2.03;1.17;;;;;;;18.74;100.00;99558.22;5029647;28;20029;-70
2022/09/12 02:28:48;;;;;;;2.45;1.10;;;;;;;19.00;100.00;99577.06;5029650;28;20033;-71
2022/09/12 02:31:43;;;;;;;2.10;0.93;;;;;;;18.83;100.00;99569.66;5041972;28;20479;-72
2022/09/12 02:34:33;;;;;;;1.35;0.98;;;;;;;18.96;100.00;99584.16;5050482;28;20025;-71
2022/09/12 02:37:01;;;;;;;2.85;1.08;;;;;;;18.71;100.00;99584.19;5049346;28;20033;-71
2022/09/12 02:39:26;;;;;;;3.17;0.90;;;;;;;18.53;100.00;99525.38;5047024;28;20087;-71
2022/09/12 02:41:56;;;;;;;2.42;1.00;;;;;;;18.67;100.00;99533.81;5035968;28;20033;-71
2022/09/12 02:44:23;;;;;;;2.15;1.00;;;;;;;18.73;100.00;99535.16;5050569;28;20040;-71
2022/09/12 02:46:54;;;;;;;2.05;1.00;;;;;;;18.91;100.00;99559.66;5048958;28;20124;-70
2022/09/12 02:49:21;;;;;;;2.50;1.20;;;;;;;19.02;100.00;99583.75;5049206;28;20025;-70
2022/09/12 02:51:47;;;;;;;1.92;1.00;;;;;;;18.79;100.00;99565.66;5050224;28;20040;-72
2022/09/12 02:54:14;;;;;;;1.90;1.30;;;;;;;18.36;100.00;99505.88;5049974;28;20572;-71
2022/09/12 02:56:42;;;;;;;3.45;0.90;;;;;;;18.83;100.00;99580.78;5050637;28;20025;-72
2022/09/12 02:59:11;;;;;;;1.35;0.90;;;;;;;18.80;100.00;99587.88;5049056;28;20028;-71
2022/09/12 03:01:50;;;;;;;1.70;1.17;;;;;;;18.98;100.00;99602.09;5050309;28;20025;-70
2022/09/12 03:04:37;;;;;;;3.92;1.30;;;;;;;18.84;100.00;99591.91;5049158;28;20039;-70
2022/09/12 03:07:03;;;;;;;2.42;1.20;;;;;;;18.90;100.00;99589.75;5050312;28;20477;-70
2022/09/12 03:10:15;;;;;;;2.55;1.02;;;;;;;19.11;100.00;99584.06;5050320;28;20111;-71
2022/09/12 03:12:50;;;;;;;;;;;;;;;18.55;100.00;99577.59;5050091;28;20429;-70
2022/09/12 03:15:47;;;;;;;3.80;1.15;;;;;;;18.99;100.00;99583.94;5048569;28;19913;-71
2022/09/12 03:18:24;;;;;;;2.22;1.20;;;;;;;18.65;100.00;99579.47;5049224;28;20036;-74
2022/09/12 03:21:24;;;;;;;2.28;1.10;;;;;;;19.41;100.00;99605.16;5050552;28;20029;-72
2022/09/12 03:24:03;;;;;;;3.92;1.27;;;;;;;19.02;100.00;99606.94;5034026;28;20045;-72
2022/09/12 03:26:39;;;;;;;2.72;1.38;;;;;;;18.83;100.00;99569.66;5030657;28;20512;-73
2022/09/12 03:29:07;;;;;;;5.25;1.58;;;;;;;18.70;100.00;99540.50;5029623;28;20096;-74
2022/09/12 03:31:32;;;;;;;1.77;1.38;;;;;;;18.68;100.00;99544.94;5033400;28;20504;-73
2022/09/12 03:33:59;;;;;;;3.30;1.50;;;;;;;18.97;100.00;99588.41;5034602;28;20033;-73
2022/09/12 03:36:28;;;;;;;3.03;1.60;;;;;;;18.75;100.00;99543.59;5032813;28;20041;-72
2022/09/12 03:38:54;;;;;;;2.70;1.35;;;;;;;19.16;100.00;99597.44;5034038;28;20128;-72
2022/09/12 03:41:20;;;;;;;1.98;1.40;;;;;;;19.16;100.00;99623.19;5033724;28;20025;-72
2022/09/12 03:43:46;;;;;;;2.72;1.50;;;;;;;19.10;100.00;99601.25;5032893;28;20341;-73
2022/09/12 03:46:12;;;;;;;2.85;1.35;;;;;;;19.40;100.00;99612.06;5032737;28;20029;-72
2022/09/12 03:48:38;;;;;;;2.42;1.20;;;;;;;18.67;100.00;99520.94;5034179;28;20519;-72
2022/09/12 03:51:06;;;;;;;2.13;1.20;;;;;;;19.29;100.00;99596.50;5032296;28;20021;-73
2022/09/12 03:53:32;;;;;;;4.60;1.30;;;;;;;18.97;100.00;99600.47;5033579;28;20038;-73
2022/09/12 03:55:58;;;;;;;2.33;1.45;;;;;;;18.77;100.00;99529.69;5032501;28;20041;-73
2022/09/12 03:58:28;;;;;;;2.20;1.40;;;;;;;18.69;100.00;99531.97;5032661;28;20030;-72
2022/09/12 04:00:54;;;;;;;2.33;1.50;;;;;;;18.85;100.00;99540.31;5031905;28;20127;-72
2022/09/12 04:03:19;;;;;;;3.38;1.42;;;;;;;19.35;100.00;99613.31;5032448;28;20191;-71
2022/09/12 04:05:46;;;;;;;4.90;1.40;;;;;;;18.77;100.00;99552.06;5033273;28;20029;-71
2022/09/12 04:08:11;;;;;;;1.92;1.20;;;;;;;18.99;100.00;99590.88;5032893;28;20455;-70
2022/09/12 04:10:37;;;;;;;2.97;1.20;;;;;;;18.17;100.00;99483.16;5033347;28;20041;-70
2022/09/12 04:13:02;;;;;;;4.85;1.48;;;;;;;18.63;100.00;99537.53;5031929;28;20099;-70
2022/09/12 04:15:28;;;;;;;7.03;1.50;;;;;;;19.11;100.00;99602.91;5031862;28;20037;-70
2022/09/12 04:17:54;;;;;;;3.72;1.25;;;;;;;18.98;100.00;99594.38;5032507;28;20037;-70
2022/09/12 04:20:20;;;;;;;5.45;1.40;;;;;;;19.22;100.00;99617.63;5052886;28;20034;-70
2022/09/12 04:22:45;;;;;;;3.78;1.25;;;;;;;18.96;100.00;99606.53;5052024;28;20033;-70
2022/09/12 04:25:12;;;;;;;3.88;1.30;;;;;;;18.59;100.00;99543.81;5052902;28;20458;-70
2022/09/12 04:27:37;;;;;;;2.38;1.40;;;;;;;18.66;100.00;99575.94;5052517;28;20028;-72
2022/09/12 04:30:03;;;;;;;1.35;1.10;;;;;;;19.19;100.00;99633.31;5052395;28;20028;-70
2022/09/12 04:32:30;;;;;;;2.95;1.13;;;;;;;18.80;100.00;99569.84;5052804;28;20029;-71
2022/09/12 04:34:55;;;;;;;3.70;1.38;;;;;;;18.77;100.00;99567.50;5051314;28;20483;-70
2022/09/12 04:37:22;;;;;;;3.05;1.38;;;;;;;20.30;100.00;99632.25;5051916;28;20086;-71
2022/09/12 04:39:48;;;;;;;4.95;1.30;;;;;;;19.56;100.00;99627.28;5048838;28;20507;-71
2022/09/12 04:42:14;;;;;;;4.68;1.30;;;;;;;19.24;100.00;99637.22;5050982;28;20130;-71
2022/09/12 04:44:40;;;;;;;1.88;1.00;;;;;;;18.94;100.00;99605.81;5052427;28;20093;-71
2022/09/12 04:47:05;;;;;;;3.17;1.20;;;;;;;18.99;100.00;99614.06;5050843;28;20458;-71
2022/09/12 04:49:31;;;;;;;3.17;1.08;;;;;;;19.15;100.00;99612.09;5052035;28;20036;-71
2022/09/12 04:51:56;;;;;;;3.78;1.10;;;;;;;18.98;100.00;99586.63;5051477;28;20029;-72
2022/09/12 04:54:22;;;;;;;4.25;1.02;;;;;;;19.42;100.00;99637.72;5052007;28;20543;-72
2022/09/12 04:56:49;;;;;;;2.55;1.20;;;;;;;18.52;100.00;99519.41;5050729;28;20040;-71
2022/09/12 04:59:16;;;;;;;3.17;1.67;;;;;;;18.94;100.00;99590.34;5052207;28;20033;-70
2022/09/12 05:01:42;;;;;;;3.50;1.27;;;;;;;19.14;100.00;99586.41;5052341;28;20095;-70
2022/09/12 05:04:09;;;;;;;1.90;1.20;;;;;;;18.97;100.00;99595.31;5052413;28;20021;-71
2022/09/12 05:06:37;;;;;;;1.98;1.45;;;;;;;18.68;100.00;99588.72;5051133;28;20032;-70
2022/09/12 05:09:04;;;;;;;2.83;1.90;;;;;;;18.68;100.00;99562.97;5051150;28;20471;-72
2022/09/12 05:11:33;;;;;;;3.40;2.38;;;;;;;19.68;100.00;99645.31;5051184;28;20025;-71
2022/09/12 05:13:58;;;;;;;3.65;2.58;;;;;;;19.61;100.00;99633.75;5050893;28;20033;-72
2022/09/12 05:16:26;;;;;;;7.38;2.88;;;;;;;19.55;100.00;99579.22;5050497;28;20029;-71
2022/09/12 05:18:51;;;;;;;4.35;2.17;;;;;;;19.49;100.00;99569.34;5050659;28;20094;-73
2022/09/12 05:21:19;;;;;;;3.00;1.38;;;;;;;19.87;100.00;99573.38;5050704;28;20033;-72
2022/09/12 05:23:46;;;;;;;2.55;1.23;;;;;;;20.72;100.00;99641.97;5051754;28;20033;-72
2022/09/12 05:26:14;;;;;;;1.40;1.10;;;;;;;19.75;100.00;99563.13;5050835;28;20090;-71
2022/09/12 05:28:40;;;;;;;3.42;1.27;;;;;;;20.59;100.00;99636.06;5052194;28;20032;-71
2022/09/12 05:31:26;;;;;;;3.55;0.98;;;;;;;20.51;100.00;99628.91;5051840;28;20114;-71
2022/09/12 05:33:53;;;;;;;2.47;1.00;;;;;;;20.25;100.00;99575.75;5051668;28;20483;-71
2022/09/12 05:36:25;;;;;;;2.60;0.93;;;;;;;20.30;100.00;99568.50;5050580;28;20040;-71
2022/09/12 05:38:50;;;;;;;1.75;0.85;;;;;;;20.79;100.00;99639.75;5051638;28;20037;-73
2022/09/12 05:41:19;;;;;;;3.50;0.95;;;;;;;20.26;100.00;99587.75;5051525;28;20111;-71
2022/09/12 05:43:45;;;;;;;1.92;0.80;;;;;;;20.31;100.00;99515.94;5051792;28;20029;-72
2022/09/12 05:46:16;;;;;;;3.53;0.80;;;;;;;20.96;100.00;99622.00;5051627;28;20025;-72
2022/09/12 05:48:43;;;;;;;2.83;0.80;;;;;;;20.99;100.00;99652.81;5051733;28;20029;-72
2022/09/12 05:51:11;;;;;;;3.63;0.88;;;;;;;21.52;100.00;99653.88;5051584;28;20037;-72
2022/09/12 05:53:38;;;;;;;2.13;1.10;;;;;;;21.26;100.00;99580.91;5050920;28;20056;-71
2022/09/12 05:56:08;;;;;;;2.70;1.40;;;;;;;21.22;100.00;99638.97;5049881;28;20060;-72
2022/09/12 05:58:35;;;;;;;1.13;0.90;;;;;;;21.70;100.00;99621.38;5050209;28;20028;-71
2022/09/12 06:01:06;;;;;;;3.53;0.95;;;;;;;21.78;100.00;99576.75;5051263;28;20379;-70
2022/09/12 06:03:38;;;;;;;2.50;1.40;;;;;;;21.58;100.00;99612.00;5049991;28;20029;-71
2022/09/12 06:06:04;;;;;;;2.70;0.90;;;;;;;21.22;100.00;99605.34;5051013;28;20024;-71
2022/09/12 06:08:31;;;;;;;2.22;0.90;;;;;;;21.63;100.00;99663.41;5051072;28;20029;-71
2022/09/12 06:11:02;;;;;;;1.50;1.00;;;;;;;21.82;100.00;99646.31;5051194;28;20029;-71
2022/09/12 06:13:29;;;;;;;2.30;0.90;;;;;;;21.70;100.00;99586.91;5049961;28;20025;-71
2022/09/12 06:16:01;;;;;;;2.88;1.13;;;;;;;21.91;100.00;99644.75;5049431;28;20044;-71
2022/09/12 06:18:27;;;;;;;2.05;0.88;;;;;;;21.75;100.00;99637.34;5049307;28;20040;-70
2022/09/12 06:20:52;;;;;;;1.30;0.88;;;;;;;21.72;100.00;99595.38;5051220;28;20029;-71
2022/09/12 06:23:17;;;;;;;1.95;0.80;;;;;;;21.74;100.00;99576.19;5050852;28;20102;-71
2022/09/12 06:25:48;;;;;;;2.25;1.00;;;;;;;21.81;100.00;99582.53;5051127;28;20039;-71
2022/09/12 06:28:15;;;;;;;2.67;0.77;;;;;;;21.51;100.00;99526.28;5049749;28;20372;-71
2022/09/12 06:30:40;;;;;;;1.67;0.80;;;;;;;22.52;100.00;99640.63;5050754;28;20435;-71
2022/09/12 06:33:06;;;;;;;3.30;1.00;;;;;;;22.52;100.00;99641.44;5051075;28;20033;-71
2022/09/12 06:35:35;;;;;;;1.83;0.85;;;;;;;22.41;100.00;99647.50;5049433;28;20037;-71
2022/09/12 06:38:00;;;;;;;2.58;0.70;;;;;;;22.33;100.00;99629.16;5050379;28;20032;-71
2022/09/12 06:40:26;;;;;;;1.25;0.65;;;;;;;22.00;100.00;99577.53;5049567;28;20025;-70
2022/09/12 06:42:51;;;;;;;3.22;0.90;;;;;;;22.28;100.00;99644.25;5050567;28;20025;-70
2022/09/12 06:45:18;;;;;;;1.48;0.77;;;;;;;22.44;100.00;99641.25;5049522;28;20040;-70
2022/09/12 06:47:44;;;;;;;3.92;0.75;;;;;;;22.74;100.00;99648.31;5050587;28;20029;-71
2022/09/12 06:50:09;;;;;;;2.72;0.70;;;;;;;22.47;100.00;99650.53;5050612;28;20479;-71
2022/09/12 06:52:35;;;;;;;2.58;0.70;;;;;;;22.41;100.00;99655.28;5048885;28;20057;-72
2022/09/12 06:55:00;;;;;;;1.08;0.60;;;;;;;22.70;100.00;99626.97;5049270;28;20032;-72
2022/09/12 06:57:29;;;;;;;1.00;0.60;;;;;;;22.25;100.00;99571.97;5050392;28;20028;-71
2022/09/12 06:59:55;;;;;;;1.25;0.70;;;;;;;22.88;100.00;99661.72;5050450;28;20389;-70
2022/09/12 07:02:20;;;;;;;0.75;0.50;;;;;;;22.42;100.00;99555.84;5048888;28;20123;-71
2022/09/12 07:04:46;;;;;;;2.30;0.77;;;;;;;23.19;100.00;99652.19;5049822;28;20024;-71
2022/09/12 07:07:13;;;;;;;4.07;0.90;;;;;;;22.91;100.00;99658.91;5053568;28;20071;-71
2022/09/12 07:09:39;;;;;;;1.60;0.80;;;;;;;22.57;100.00;99568.47;5053164;28;20438;-71
2022/09/12 07:12:05;;;;;;;2.55;0.70;;;;;;;23.06;100.00;99654.19;5053435;28;20037;-72
2022/09/12 07:14:30;;;;;;;1.60;0.65;;;;;;;22.98;100.00;99662.59;5054710;28;20017;-71
2022/09/12 07:16:55;;;;;;;1.20;0.70;;;;;;;23.47;100.00;99658.47;5054176;28;20418;-71
2022/09/12 07:19:21;;;;;;;1.45;0.57;;;;;;;23.47;100.00;99671.44;5054167;28;20487;-71
2022/09/12 07:21:46;;;;;;;5.13;0.50;;;;;;;23.33;100.00;99599.97;5053265;28;20120;-72
2022/09/12 07:24:12;;;;;;;4.03;0.65;;;;;;;23.21;100.00;99668.47;5054575;28;20036;-71
2022/09/12 07:26:39;;;;;;;1.33;0.60;;;;;;;23.39;100.00;99661.75;5054603;28;20037;-71
2022/09/12 07:29:04;;;;;;;1.30;0.50;;;;;;;23.77;100.00;99674.00;5052721;28;20477;-72
2022/09/12 07:31:29;;;;;;;1.88;0.90;;;;;;;23.13;100.00;99613.81;5052899;28;20053;-72
2022/09/12 07:33:55;;;;;;;2.75;0.90;;;;;;;23.53;100.00;99669.13;5052687;28;20410;-72
2022/09/12 07:36:24;;;;;;;3.38;0.68;;;;;;;23.44;100.00;99651.78;5052787;28;20121;-71
2022/09/12 07:38:54;;;;;;;2.53;0.60;;;;;;;23.48;100.00;99610.78;5053889;28;20036;-72
2022/09/12 07:41:22;;;;;;;1.65;0.60;;;;;;;23.92;100.00;99607.72;5054031;28;20162;-72
2022/09/12 07:43:51;;;;;;;0.75;0.70;;;;;;;24.39;100.00;99637.25;5053818;28;20498;-72
2022/09/12 07:46:17;;;;;;;1.23;0.50;;;;;;;24.08;100.00;99598.47;5053897;28;20025;-72
2022/09/12 07:48:44;;;;;;;1.13;0.70;;;;;;;24.03;100.00;99592.84;5052543;28;20036;-72
2022/09/12 07:51:10;;;;;;;1.30;0.70;;;;;;;23.93;100.00;99658.69;5053977;28;20079;-71
2022/09/12 07:53:39;;;;;;;2.70;0.63;;;;;;;24.06;100.00;99659.28;5053928;28;20052;-71
2022/09/12 07:56:09;;;;;;;0.98;0.63;;;;;;;23.91;100.00;99580.91;5052595;28;20556;-71
2022/09/12 07:58:36;;;;;;;1.90;0.50;;;;;;;23.93;100.00;99563.41;5052245;28;20028;-71
2022/09/12 08:01:22;;;;;;;3.47;1.15;;;;;;;24.48;100.00;99645.03;5054192;28;20068;-71
2022/09/12 08:03:49;;;;;;;2.60;0.70;;;;;;;24.55;100.00;99606.31;5053522;28;20491;-72
2022/09/12 08:06:19;;;;;;;2.70;0.50;;;;;;;24.40;100.00;99602.50;5053645;28;20560;-74
2022/09/12 08:08:46;;;;;;;5.57;1.20;;;;;;;25.30;100.00;99635.63;5053388;28;20029;-72
2022/09/12 08:11:14;;;;;;;2.30;0.43;;;;;;;24.98;100.00;99640.44;5053666;28;20268;-71
2022/09/12 08:13:41;;;;;;;2.60;0.80;;;;;;;24.49;100.00;99573.06;5053263;28;20098;-71
2022/09/12 08:16:11;;;;;;;2.30;0.70;;;;;;;24.31;100.00;99582.53;5053284;28;20047;-71
2022/09/12 08:18:38;;;;;;;1.15;0.88;;;;;;;24.76;100.00;99612.19;5051844;28;20129;-72
2022/09/12 08:21:06;;;;;;;1.15;0.60;;;;;;;24.94;100.00;99626.06;5053242;28;20032;-72
2022/09/12 08:23:32;;;;;;;1.38;0.60;;;;;;;25.23;100.00;99663.22;5053412;28;20048;-72
2022/09/12 08:26:00;;;;;;;1.33;0.60;;;;;;;25.76;92.76;99625.13;5051821;28;20025;-72
2022/09/12 08:28:26;;;;;;;1.48;0.40;;;;;;;25.04;94.66;99594.81;5053230;28;20021;-72
2022/09/12 08:30:53;;;;;;;2.35;0.47;;;;;;;25.03;95.34;99669.47;5053162;28;20025;-72
2022/09/12 08:33:19;;;;;;;1.02;0.55;;;;;;;24.84;95.18;99535.06;5053168;28;20167;-72
2022/09/12 08:35:45;;;;;;;1.95;0.77;;;;;;;25.64;93.42;99635.88;5051427;28;20483;-71
2022/09/12 08:38:11;;;;;;;3.30;0.50;;;;;;;25.72;87.62;99631.59;5051699;28;20032;-71
2022/09/12 08:41:04;;;;;;;3.33;0.60;;;;;;;26.06;88.75;99639.59;5051334;28;20036;-71
2022/09/12 08:43:58;;;;;;;1.50;0.80;;;;;;;25.87;88.64;99638.91;5052799;28;20029;-71
2022/09/12 08:46:44;;;;;;;1.70;0.75;;;;;;;25.85;87.63;99573.09;5051868;28;20102;-72
2022/09/12 08:49:14;;;;;;;2.53;0.73;;;;;;;25.53;84.66;99579.63;5052985;28;20033;-72
2022/09/12 08:51:40;;;;;;;0.77;0.60;;;;;;;25.58;85.97;99555.75;5052902;28;20033;-72
2022/09/12 08:54:18;;;;;;;1.30;0.70;;;;;;;25.71;84.21;99558.81;5052554;28;20064;-72
2022/09/12 08:56:44;;;;;;;3.00;0.50;;;;;;;25.64;89.31;99618.50;5052975;28;20036;-72
2022/09/12 08:59:10;;;;;;;2.50;0.43;;;;;;;25.92;85.96;99627.06;5052445;28;20037;-72
2022/09/12 09:01:41;;;;;;;6.10;0.80;;;;;;;25.56;84.55;99519.44;5052098;28;20044;-72
2022/09/12 09:04:36;;;;;;;1.80;0.40;;;;;;;26.04;84.35;99631.09;5052678;28;20020;-73
2022/09/12 09:07:17;;;;;;;3.70;0.52;;;;;;;26.25;83.32;99630.78;5042378;28;20108;-73
2022/09/12 09:10:22;;;;;;;2.05;0.50;;;;;;;26.20;80.65;99620.00;5031427;28;20032;-71
2022/09/12 09:12:57;;;;;;;0.47;0.45;;;;;;;25.85;78.37;99641.63;5020330;28;20048;-72
2022/09/12 09:15:57;;;;;;;0.60;0.40;;;;;;;26.11;81.31;99633.91;5032229;28;20480;-72
2022/09/12 09:18:30;;;;;;;2.05;0.50;;;;;;;26.55;79.99;99597.28;5029879;28;20029;-72
2022/09/12 09:21:05;;;;;;;0.47;0.40;;;;;;;26.43;78.39;99614.16;5030228;28;20051;-74
2022/09/12 09:23:35;;;;;;;1.40;0.40;;;;;;;26.62;79.09;99618.38;5032604;28;20030;-72
2022/09/12 09:26:06;;;;;;;0.63;0.40;;;;;;;26.36;76.24;99620.13;5032797;28;20029;-71
2022/09/12 09:28:38;;;;;;;1.50;0.50;;;;;;;26.09;75.46;99586.34;5031198;28;20500;-72
2022/09/12 09:31:10;;;;;;;2.75;0.40;;;;;;;26.23;72.00;99541.47;5032523;28;20029;-71
2022/09/12 09:33:36;;;;;;;0.55;0.32;;;;;;;25.90;72.61;99553.44;5036260;28;20032;-71
2022/09/12 09:36:36;;;;;;;2.03;0.50;;;;;;;27.19;71.53;99568.09;5050313;28;20093;-72
2022/09/12 09:39:10;;;;;;;0.98;0.30;;;;;;;26.96;66.31;99621.03;5046516;28;20029;-71
2022/09/12 09:42:08;;;;;;;1.30;0.50;;;;;;;27.46;67.54;99611.44;4690029;28;10000377;-72
2022/09/12 09:44:34;;;;;;;2.08;0.30;;;;;;;27.03;68.45;99588.09;5034589;28;20564;-72
2022/09/12 09:47:00;;;;;;;1.23;0.30;;;;;;;26.86;65.55;99544.66;5049183;28;20029;-71
2022/09/12 09:49:32;;;;;;;4.82;0.45;;;;;;;25.74;69.57;99495.97;5049026;28;20064;-72
2022/09/12 09:51:59;;;;;;;0.85;0.30;;;;;;;27.27;64.79;99617.75;5048988;28;20037;-73
2022/09/12 09:54:49;;;;;;;0.55;0.30;;;;;;;26.54;62.27;99524.41;5049218;28;20063;-72
2022/09/12 09:57:33;;;;;;;0.98;0.50;;;;;;;27.22;59.37;99612.16;5045589;28;20029;-72
2022/09/12 10:00:18;;;;;;;0.63;0.30;;;;;;;26.74;61.75;99614.53;5036747;28;20033;-72
2022/09/12 10:02:57;;;;;;;2.00;0.60;;;;;;;26.70;65.22;99574.06;5048567;28;20037;-70
2022/09/12 10:05:23;;;;;;;1.65;0.55;;;;;;;26.47;64.22;99554.66;5051174;28;20483;-71
2022/09/12 10:07:50;;;;;;;4.40;1.08;;;;;;;26.71;60.50;99497.44;5049929;28;20075;-71
2022/09/12 10:10:21;;;;;;;1.45;0.68;;;;;;;27.83;58.04;99606.63;5051587;28;20032;-71
2022/09/12 10:12:47;;;;;;;1.98;0.50;;;;;;;27.45;55.48;99615.84;5051551;28;20064;-71
2022/09/12 10:15:19;;;;;;;0.40;0.40;;;;;;;27.02;55.63;99595.09;5051438;28;20108;-71
2022/09/12 10:17:48;;;;;;;3.85;0.40;;;;;;;27.72;55.82;99599.09;5051040;28;20033;-71
2022/09/12 10:20:38;;;;;;;0.40;0.40;;;;;;;27.73;56.19;99616.41;5051312;28;20033;-70
2022/09/12 10:23:24;;;;;;;1.20;0.70;;;;;;;27.89;56.22;99597.34;5044173;28;20072;-71
2022/09/12 10:25:55;;;;;;;0.60;0.50;;;;;;;27.75;58.05;99587.50;5046934;28;20111;-71
2022/09/12 10:28:35;;;;;;;0.85;0.40;;;;;;;27.82;56.43;99609.41;5050113;28;20407;-71
2022/09/12 10:31:01;;;;;;;1.20;0.50;;;;;;;27.52;58.88;99599.53;5050789;28;20025;-72
2022/09/12 10:33:28;;;;;;;2.65;0.55;;;;;;;27.06;56.76;99598.22;5051289;28;20028;-71
2022/09/12 10:35:54;;;;;;;1.92;0.40;;;;;;;27.34;58.61;99526.53;5049703;28;20120;-71
2022/09/12 10:38:30;;;;;;;2.92;0.57;;;;;;;28.17;56.31;99534.09;5051080;28;20102;-71
2022/09/12 10:41:08;;;;;;;1.45;0.50;;;;;;;27.66;54.16;99499.63;5050051;28;20028;-71
2022/09/12 10:43:33;;;;;;;0.68;0.30;;;;;;;27.65;49.26;99599.91;5050791;28;20025;-71
2022/09/12 10:46:17;;;;;;;0.50;0.30;;;;;;;28.46;49.49;99601.59;5050753;28;20029;-71
2022/09/12 10:48:44;;;;;;;0.40;0.30;;;;;;;27.75;49.70;99494.22;5050753;28;20116;-71
2022/09/12 10:51:25;;;;;;;0.68;0.35;;;;;;;28.07;50.85;99608.47;5050215;28;20069;-71
2022/09/12 10:53:53;;;;;;;1.15;0.30;;;;;;;27.74;54.48;99604.97;5050934;28;20049;-71
2022/09/12 10:56:24;;;;;;;1.40;0.40;;;;;;;27.88;51.81;99590.44;5049277;28;20580;-70
2022/09/12 10:58:53;;;;;;;;;;;;;;;27.81;52.01;99589.47;5049837;28;20151;-70
2022/09/12 11:01:18;;;;;;;1.17;0.52;;;;;;;28.96;47.86;99588.25;5050860;28;19912;-71
2022/09/12 11:04:04;;;;;;;3.03;0.50;;;;;;;28.79;47.99;99589.25;5049147;28;20414;-70
2022/09/12 11:06:55;;;;;;;2.55;0.45;;;;;;;28.93;50.55;99589.38;5049592;28;20064;-70
2022/09/12 11:09:20;;;;;;;2.00;0.60;;;;;;;28.44;49.47;99593.09;5038913;28;20487;-71
2022/09/12 11:12:18;;;;;;;1.52;0.50;;;;;;;27.70;51.57;99595.81;5050814;28;20090;-71
2022/09/12 11:15:21;;;;;;;3.35;0.60;;;;;;;26.74;56.46;99592.84;5049094;28;20041;-70
2022/09/12 11:17:51;;;;;;;1.42;0.50;;;;;;;26.66;58.09;99587.56;5049350;28;20483;-71
2022/09/12 11:20:29;;;;;;;2.65;0.60;;;;;;;26.72;54.70;99579.16;5050887;28;20436;-70
2022/09/12 11:23:30;;;;;;;0.70;0.60;;;;;;;27.30;55.46;99590.47;5050342;28;20033;-70
2022/09/12 11:26:07;;;;;;;1.07;0.67;;;;;;;27.64;51.82;99587.81;5038167;28;20198;-71
2022/09/12 11:28:51;;;;;;;0.60;0.50;;;;;;;27.48;52.58;99570.31;5050473;28;20274;-70
2022/09/12 11:31:41;;;;;;;0.40;0.40;;;;;;;28.39;48.63;99579.66;5048955;28;20094;-70
2022/09/12 11:34:09;;;;;;;0.50;0.50;;;;;;;28.11;48.62;99557.47;5049154;28;20029;-70
2022/09/12 11:37:07;;;;;;;1.17;0.50;;;;;;;28.38;48.55;99567.59;5049125;28;20045;-70
2022/09/12 11:39:38;;;;;;;2.50;0.60;;;;;;;27.51;47.98;99522.16;5050375;28;20028;-71
2022/09/12 11:42:11;;;;;;;1.85;0.57;;;;;;;28.63;47.21;99573.59;5049195;28;20732;-71
2022/09/12 11:44:41;;;;;;;0.40;0.40;;;;;;;28.35;43.02;99551.38;5050548;28;20029;-70
2022/09/12 11:47:11;;;;;;;0.40;0.40;;;;;;;26.54;45.90;99532.22;5050572;28;20078;-71
2022/09/12 11:49:46;;;;;;;2.22;0.50;;;;;;;27.82;45.62;99542.25;5050315;28;20056;-72